sensor_id;sensor_type;location;lat;lon;timestamp;temperature;humidity
13642;DHT22;6894;52.196;9.904;2022-09-12T00:01:06;12.00;99.90
13642;DHT22;6894;52.196;9.904;2022-09-12T00:03:33;11.90;99.90
13642;DHT22;6894;52.196;9.904;2022-09-12T00:06:00;11.90;99.90
13642;DHT22;6894;52.196;9.904;2022-09-12T00:08:26;11.90;99.90
13642;DHT22;6894;52.196;9.904;2022-09-12T00:10:54;11.90;99.90
13642;DHT22;6894;52.196;9.904;2022-09-12T00:13:21;11.90;99.90
13642;DHT22;6894;52.196;9.904;2022-09-12T00:15:48;11.80;99.90
13642;DHT22;6894;52.196;9.904;2022-09-12T00:18:15;11.80;99.90
13642;DHT22;6894;52.196;9.904;2022-09-12T00:20:43;11.70;99.90
13642;DHT22;6894;52.196;9.904;2022-09-12T00:23:11;11.80;99.90
13642;DHT22;6894;52.196;9.904;2022-09-12T00:25:41;11.70;99.90
13642;DHT22;6894;52.196;9.904;2022-09-12T00:28:10;11.70;99.90
13642;DHT22;6894;52.196;9.904;2022-09-12T00:30:40;11.70;99.90
13642;DHT22;6894;52.196;9.904;2022-09-12T00:33:08;11.70;99.90
13642;DHT22;6894;52.196;9.904;2022-09-12T00:35:40;11.70;99.90
13642;DHT22;6894;52.196;9.904;2022-09-12T00:38:07;11.60;99.90
13642;DHT22;6894;52.196;9.904;2022-09-12T00:40:34;11.60;99.90
13642;DHT22;6894;52.196;9.904;2022-09-12T00:43:01;11.60;99.90
13642;DHT22;6894;52.196;9.904;2022-09-12T00:45:29;11.60;99.90
13642;DHT22;6894;52.196;9.904;2022-09-12T00:47:58;11.60;99.90
13642;DHT22;6894;52.196;9.904;2022-09-12T00:50:26;11.60;99.90
13642;DHT22;6894;52.196;9.904;2022-09-12T00:52:57;11.60;99.90
13642;DHT22;6894;52.196;9.904;2022-09-12T00:55:29;11.50;99.90
13642;DHT22;6894;52.196;9.904;2022-09-12T00:58:00;11.40;99.90
13642;DHT22;6894;52.196;9.904;2022-09-12T01:00:29;11.40;99.90
13642;DHT22;6894;52.196;9.904;2022-09-12T01:02:58;11.40;99.90
13642;DHT22;6894;52.196;9.904;2022-09-12T01:05:27;11.40;99.90
13642;DHT22;6894;52.196;9.904;2022-09-12T01:07:55;11.40;99.90
13642;DHT22;6894;52.196;9.904;2022-09-12T01:10:23;11.40;99.90
13642;DHT22;6894;52.196;9.904;2022-09-12T01:12:50;11.30;99.90
13642;DHT22;6894;52.196;9.904;2022-09-12T01:15:17;11.30;99.90
13642;DHT22;6894;52.196;9.904;2022-09-12T01:17:59;11.30;99.90
13642;DHT22;6894;52.196;9.904;2022-09-12T01:20:45;11.30;99.90
13642;DHT22;6894;52.196;9.904;2022-09-12T01:23:52;11.10;99.90
13642;DHT22;6894;52.196;9.904;2022-09-12T01:26:46;11.20;99.90
13642;DHT22;6894;52.196;9.904;2022-09-12T01:32:27;11.30;99.90
13642;DHT22;6894;52.196;9.904;2022-09-12T01:35:04;11.30;99.90
13642;DHT22;6894;52.196;9.904;2022-09-12T01:37:38;11.30;99.90
13642;DHT22;6894;52.196;9.904;2022-09-12T01:40:12;11.20;99.90
13642;DHT22;6894;52.196;9.904;2022-09-12T01:42:48;11.20;99.90
13642;DHT22;6894;52.196;9.904;2022-09-12T01:45:20;11.10;99.90
13642;DHT22;6894;52.196;9.904;2022-09-12T01:47:55;11.10;99.90
13642;DHT22;6894;52.196;9.904;2022-09-12T01:50:26;11.10;99.90
13642;DHT22;6894;52.196;9.904;2022-09-12T01:52:56;11.10;99.90
13642;DHT22;6894;52.196;9.904;2022-09-12T01:55:24;11.00;99.90
13642;DHT22;6894;52.196;9.904;2022-09-12T01:57:56;11.00;99.90
13642;DHT22;6894;52.196;9.904;2022-09-12T02:00:25;11.00;99.90
13642;DHT22;6894;52.196;9.904;2022-09-12T02:02:56;11.00;99.90
13642;DHT22;6894;52.196;9.904;2022-09-12T02:05:30;10.40;99.90
13642;DHT22;6894;52.196;9.904;2022-09-12T02:08:02;11.00;99.90
13642;DHT22;6894;52.196;9.904;2022-09-12T02:10:34;10.90;99.90
13642;DHT22;6894;52.196;9.904;2022-09-12T02:13:06;10.90;99.90
13642;DHT22;6894;52.196;9.904;2022-09-12T02:15:37;10.90;99.90
13642;DHT22;6894;52.196;9.904;2022-09-12T02:18:07;10.90;99.90
13642;DHT22;6894;52.196;9.904;2022-09-12T02:20:38;11.10;99.90
13642;DHT22;6894;52.196;9.904;2022-09-12T02:23:10;10.90;99.90
13642;DHT22;6894;52.196;9.904;2022-09-12T02:25:40;10.80;99.90
13642;DHT22;6894;52.196;9.904;2022-09-12T02:28:10;10.80;99.90
13642;DHT22;6894;52.196;9.904;2022-09-12T02:30:42;10.80;99.90
13642;DHT22;6894;52.196;9.904;2022-09-12T02:33:17;10.80;99.90
13642;DHT22;6894;52.196;9.904;2022-09-12T02:35:49;10.70;99.90
13642;DHT22;6894;52.196;9.904;2022-09-12T02:38:24;10.70;99.90
13642;DHT22;6894;52.196;9.904;2022-09-12T02:40:52;10.70;99.90
13642;DHT22;6894;52.196;9.904;2022-09-12T02:43:21;10.60;99.90
13642;DHT22;6894;52.196;9.904;2022-09-12T02:45:48;10.60;99.90
13642;DHT22;6894;52.196;9.904;2022-09-12T02:48:19;10.60;99.90
13642;DHT22;6894;52.196;9.904;2022-09-12T02:50:48;10.60;99.90
13642;DHT22;6894;52.196;9.904;2022-09-12T02:53:15;10.60;99.90
13642;DHT22;6894;52.196;9.904;2022-09-12T02:55:43;10.60;99.90
13642;DHT22;6894;52.196;9.904;2022-09-12T02:58:12;10.50;99.90
13642;DHT22;6894;52.196;9.904;2022-09-12T03:00:44;10.50;99.90
13642;DHT22;6894;52.196;9.904;2022-09-12T03:03:44;10.60;99.90
13642;DHT22;6894;52.196;9.904;2022-09-12T03:06:26;10.60;99.90
13642;DHT22;6894;52.196;9.904;2022-09-12T03:09:02;10.60;99.90
13642;DHT22;6894;52.196;9.904;2022-09-12T03:11:42;10.60;99.90
13642;DHT22;6894;52.196;9.904;2022-09-12T03:14:25;10.50;99.90
13642;DHT22;6894;52.196;9.904;2022-09-12T03:17:01;10.50;99.90
13642;DHT22;6894;52.196;9.904;2022-09-12T03:19:39;10.60;99.90
13642;DHT22;6894;52.196;9.904;2022-09-12T03:22:12;10.50;99.90
13642;DHT22;6894;52.196;9.904;2022-09-12T03:24:47;10.50;99.90
13642;DHT22;6894;52.196;9.904;2022-09-12T03:27:17;10.50;99.90
13642;DHT22;6894;52.196;9.904;2022-09-12T03:29:47;10.40;99.90
13642;DHT22;6894;52.196;9.904;2022-09-12T03:32:14;10.30;99.90
13642;DHT22;6894;52.196;9.904;2022-09-12T03:34:42;10.30;99.90
13642;DHT22;6894;52.196;9.904;2022-09-12T03:37:09;10.30;99.90
13642;DHT22;6894;52.196;9.904;2022-09-12T03:39:36;10.30;99.90
13642;DHT22;6894;52.196;9.904;2022-09-12T03:42:03;10.30;99.90
13642;DHT22;6894;52.196;9.904;2022-09-12T03:44:29;10.30;99.90
13642;DHT22;6894;52.196;9.904;2022-09-12T03:46:56;10.30;99.90
13642;DHT22;6894;52.196;9.904;2022-09-12T03:49:23;10.20;99.90
13642;DHT22;6894;52.196;9.904;2022-09-12T03:51:51;10.30;99.90
13642;DHT22;6894;52.196;9.904;2022-09-12T03:54:18;10.30;99.90
13642;DHT22;6894;52.196;9.904;2022-09-12T03:56:44;10.30;99.90
13642;DHT22;6894;52.196;9.904;2022-09-12T03:59:11;10.20;99.90
13642;DHT22;6894;52.196;9.904;2022-09-12T04:01:38;10.10;99.90
13642;DHT22;6894;52.196;9.904;2022-09-12T04:04:06;10.10;99.90
13642;DHT22;6894;52.196;9.904;2022-09-12T04:06:32;10.20;99.90
13642;DHT22;6894;52.196;9.904;2022-09-12T04:09:01;10.20;99.90
13642;DHT22;6894;52.196;9.904;2022-09-12T04:11:28;10.00;99.90
13642;DHT22;6894;52.196;9.904;2022-09-12T04:13:56;10.10;99.90
13642;DHT22;6894;52.196;9.904;2022-09-12T04:16:23;10.10;99.90
13642;DHT22;6894;52.196;9.904;2022-09-12T04:18:49;10.00;99.90
13642;DHT22;6894;52.196;9.904;2022-09-12T04:21:18;10.00;99.90
13642;DHT22;6894;52.196;9.904;2022-09-12T04:23:46;9.90;99.90
13642;DHT22;6894;52.196;9.904;2022-09-12T04:26:15;9.90;99.90
13642;DHT22;6894;52.196;9.904;2022-09-12T04:28:43;9.90;99.90
13642;DHT22;6894;52.196;9.904;2022-09-12T04:31:13;9.90;99.90
13642;DHT22;6894;52.196;9.904;2022-09-12T04:33:42;9.90;99.90
13642;DHT22;6894;52.196;9.904;2022-09-12T04:36:11;10.00;99.90
13642;DHT22;6894;52.196;9.904;2022-09-12T04:38:41;9.90;99.90
13642;DHT22;6894;52.196;9.904;2022-09-12T04:41:12;9.90;99.90
13642;DHT22;6894;52.196;9.904;2022-09-12T04:43:41;9.90;99.90
13642;DHT22;6894;52.196;9.904;2022-09-12T04:46:10;9.90;99.90
13642;DHT22;6894;52.196;9.904;2022-09-12T04:48:37;9.90;99.90
13642;DHT22;6894;52.196;9.904;2022-09-12T04:51:08;9.90;99.90
13642;DHT22;6894;52.196;9.904;2022-09-12T04:53:36;9.90;99.90
13642;DHT22;6894;52.196;9.904;2022-09-12T04:56:03;9.90;99.90
13642;DHT22;6894;52.196;9.904;2022-09-12T04:58:32;9.90;99.90
13642;DHT22;6894;52.196;9.904;2022-09-12T05:01:05;10.00;99.90
13642;DHT22;6894;52.196;9.904;2022-09-12T05:03:32;10.00;99.90
13642;DHT22;6894;52.196;9.904;2022-09-12T05:06:01;10.00;99.90
13642;DHT22;6894;52.196;9.904;2022-09-12T05:08:28;10.00;99.90
13642;DHT22;6894;52.196;9.904;2022-09-12T05:10:54;10.00;99.90
13642;DHT22;6894;52.196;9.904;2022-09-12T05:13:21;10.10;99.90
13642;DHT22;6894;52.196;9.904;2022-09-12T05:15:54;10.10;99.90
13642;DHT22;6894;52.196;9.904;2022-09-12T05:18:22;10.00;99.90
13642;DHT22;6894;52.196;9.904;2022-09-12T05:20:49;10.10;99.90
13642;DHT22;6894;52.196;9.904;2022-09-12T05:23:16;10.20;99.90
13642;DHT22;6894;52.196;9.904;2022-09-12T05:25:47;10.30;99.90
13642;DHT22;6894;52.196;9.904;2022-09-12T05:28:14;10.40;99.90
13642;DHT22;6894;52.196;9.904;2022-09-12T05:30:42;10.40;99.90
13642;DHT22;6894;52.196;9.904;2022-09-12T05:33:08;10.50;99.90
13642;DHT22;6894;52.196;9.904;2022-09-12T05:35:36;10.50;99.90
13642;DHT22;6894;52.196;9.904;2022-09-12T05:38:03;10.70;99.90
13642;DHT22;6894;52.196;9.904;2022-09-12T05:40:30;10.80;99.90
13642;DHT22;6894;52.196;9.904;2022-09-12T05:42:57;10.90;99.90
13642;DHT22;6894;52.196;9.904;2022-09-12T05:45:24;11.00;99.90
13642;DHT22;6894;52.196;9.904;2022-09-12T05:47:51;11.20;99.90
13642;DHT22;6894;52.196;9.904;2022-09-12T05:50:18;11.30;99.90
13642;DHT22;6894;52.196;9.904;2022-09-12T05:52:46;11.50;99.90
13642;DHT22;6894;52.196;9.904;2022-09-12T05:55:13;11.50;99.90
13642;DHT22;6894;52.196;9.904;2022-09-12T05:57:42;11.60;99.90
13642;DHT22;6894;52.196;9.904;2022-09-12T06:00:11;11.60;99.90
13642;DHT22;6894;52.196;9.904;2022-09-12T06:02:39;11.60;99.90
13642;DHT22;6894;52.196;9.904;2022-09-12T06:05:06;11.70;99.90
13642;DHT22;6894;52.196;9.904;2022-09-12T06:07:33;11.80;99.90
13642;DHT22;6894;52.196;9.904;2022-09-12T06:10:01;11.90;99.90
13642;DHT22;6894;52.196;9.904;2022-09-12T06:12:29;12.00;99.90
13642;DHT22;6894;52.196;9.904;2022-09-12T06:14:56;12.10;99.90
13642;DHT22;6894;52.196;9.904;2022-09-12T06:17:23;12.20;99.90
13642;DHT22;6894;52.196;9.904;2022-09-12T06:19:49;12.30;99.90
13642;DHT22;6894;52.196;9.904;2022-09-12T06:22:16;12.40;99.90
13642;DHT22;6894;52.196;9.904;2022-09-12T06:24:43;12.60;99.90
13642;DHT22;6894;52.196;9.904;2022-09-12T06:27:11;12.70;99.90
13642;DHT22;6894;52.196;9.904;2022-09-12T06:29:38;12.80;99.90
13642;DHT22;6894;52.196;9.904;2022-09-12T06:32:05;12.80;99.90
13642;DHT22;6894;52.196;9.904;2022-09-12T06:34:32;12.90;99.90
13642;DHT22;6894;52.196;9.904;2022-09-12T06:37:00;13.00;99.90
13642;DHT22;6894;52.196;9.904;2022-09-12T06:39:28;13.10;99.90
13642;DHT22;6894;52.196;9.904;2022-09-12T06:41:55;13.10;99.90
13642;DHT22;6894;52.196;9.904;2022-09-12T06:44:23;13.10;99.90
13642;DHT22;6894;52.196;9.904;2022-09-12T06:46:50;13.20;99.90
13642;DHT22;6894;52.196;9.904;2022-09-12T06:49:18;13.40;99.90
13642;DHT22;6894;52.196;9.904;2022-09-12T06:51:45;13.40;99.90
13642;DHT22;6894;52.196;9.904;2022-09-12T06:54:12;13.50;99.90
13642;DHT22;6894;52.196;9.904;2022-09-12T06:56:39;13.60;99.90
13642;DHT22;6894;52.196;9.904;2022-09-12T06:59:06;13.70;99.90
13642;DHT22;6894;52.196;9.904;2022-09-12T07:01:34;13.90;99.90
13642;DHT22;6894;52.196;9.904;2022-09-12T07:04:03;14.10;99.90
13642;DHT22;6894;52.196;9.904;2022-09-12T07:06:34;14.20;99.90
13642;DHT22;6894;52.196;9.904;2022-09-12T07:09:03;14.40;99.90
13642;DHT22;6894;52.196;9.904;2022-09-12T07:11:32;14.50;99.90
13642;DHT22;6894;52.196;9.904;2022-09-12T07:14:00;14.70;99.90
13642;DHT22;6894;52.196;9.904;2022-09-12T07:16:28;14.80;99.90
13642;DHT22;6894;52.196;9.904;2022-09-12T07:18:57;14.90;99.90
13642;DHT22;6894;52.196;9.904;2022-09-12T07:21:25;15.10;99.90
13642;DHT22;6894;52.196;9.904;2022-09-12T07:23:52;15.20;99.90
13642;DHT22;6894;52.196;9.904;2022-09-12T07:26:19;15.40;99.90
13642;DHT22;6894;52.196;9.904;2022-09-12T07:28:50;15.70;99.90
13642;DHT22;6894;52.196;9.904;2022-09-12T07:31:19;15.80;99.90
13642;DHT22;6894;52.196;9.904;2022-09-12T07:33:45;16.00;99.90
13642;DHT22;6894;52.196;9.904;2022-09-12T07:36:16;16.10;99.90
13642;DHT22;6894;52.196;9.904;2022-09-12T07:38:43;16.40;99.90
13642;DHT22;6894;52.196;9.904;2022-09-12T07:41:11;16.50;99.90
13642;DHT22;6894;52.196;9.904;2022-09-12T07:43:38;16.70;99.90
13642;DHT22;6894;52.196;9.904;2022-09-12T07:46:05;16.90;99.90
13642;DHT22;6894;52.196;9.904;2022-09-12T07:48:32;17.00;99.90
13642;DHT22;6894;52.196;9.904;2022-09-12T07:50:59;17.30;99.90
13642;DHT22;6894;52.196;9.904;2022-09-12T07:53:31;17.60;99.90
13642;DHT22;6894;52.196;9.904;2022-09-12T07:55:59;17.90;99.90
13642;DHT22;6894;52.196;9.904;2022-09-12T07:58:27;18.20;99.90
13642;DHT22;6894;52.196;9.904;2022-09-12T08:01:00;18.50;99.90
13642;DHT22;6894;52.196;9.904;2022-09-12T08:03:27;18.80;99.90
13642;DHT22;6894;52.196;9.904;2022-09-12T08:05:54;18.90;99.90
13642;DHT22;6894;52.196;9.904;2022-09-12T08:08:21;19.00;99.90
13642;DHT22;6894;52.196;9.904;2022-09-12T08:10:56;19.30;99.90
13642;DHT22;6894;52.196;9.904;2022-09-12T08:13:22;19.50;99.90
13642;DHT22;6894;52.196;9.904;2022-09-12T08:15:49;19.90;99.90
13642;DHT22;6894;52.196;9.904;2022-09-12T08:18:16;20.20;99.90
13642;DHT22;6894;52.196;9.904;2022-09-12T08:20:42;20.50;99.90
13642;DHT22;6894;52.196;9.904;2022-09-12T08:23:09;20.70;99.90
13642;DHT22;6894;52.196;9.904;2022-09-12T08:25:36;20.80;99.90
13642;DHT22;6894;52.196;9.904;2022-09-12T08:28:04;21.10;99.90
13642;DHT22;6894;52.196;9.904;2022-09-12T08:30:31;21.30;99.90
13642;DHT22;6894;52.196;9.904;2022-09-12T08:32:58;21.40;99.90
13642;DHT22;6894;52.196;9.904;2022-09-12T08:35:24;21.60;99.90
13642;DHT22;6894;52.196;9.904;2022-09-12T08:37:51;21.70;99.90
13642;DHT22;6894;52.196;9.904;2022-09-12T08:40:18;21.90;99.90
13642;DHT22;6894;52.196;9.904;2022-09-12T08:42:53;22.10;99.90
13642;DHT22;6894;52.196;9.904;2022-09-12T08:45:30;22.10;99.90
13642;DHT22;6894;52.196;9.904;2022-09-12T08:48:01;22.40;99.90
13642;DHT22;6894;52.196;9.904;2022-09-12T08:50:28;22.60;99.90
13642;DHT22;6894;52.196;9.904;2022-09-12T08:52:59;22.60;99.90
13642;DHT22;6894;52.196;9.904;2022-09-12T08:55:31;22.80;99.90
13642;DHT22;6894;52.196;9.904;2022-09-12T08:58:00;23.20;99.90
13642;DHT22;6894;52.196;9.904;2022-09-12T09:00:35;23.60;99.90
13642;DHT22;6894;52.196;9.904;2022-09-12T09:03:26;23.70;99.90
13642;DHT22;6894;52.196;9.904;2022-09-12T09:06:01;23.90;99.90
13642;DHT22;6894;52.196;9.904;2022-09-12T09:08:40;23.70;99.90
13642;DHT22;6894;52.196;9.904;2022-09-12T09:11:25;23.80;99.90
13642;DHT22;6894;52.196;9.904;2022-09-12T09:14:06;24.00;99.70
13642;DHT22;6894;52.196;9.904;2022-09-12T09:16:55;23.80;94.40
13642;DHT22;6894;52.196;9.904;2022-09-12T09:19:25;23.80;91.00
13642;DHT22;6894;52.196;9.904;2022-09-12T09:21:57;23.70;99.90
13642;DHT22;6894;52.196;9.904;2022-09-12T09:24:27;23.90;86.90
13642;DHT22;6894;52.196;9.904;2022-09-12T09:27:00;23.90;80.50
13642;DHT22;6894;52.196;9.904;2022-09-12T09:29:34;23.70;82.50
13642;DHT22;6894;52.196;9.904;2022-09-12T09:32:11;23.60;84.00
13642;DHT22;6894;52.196;9.904;2022-09-12T09:34:39;23.50;66.90
13642;DHT22;6894;52.196;9.904;2022-09-12T09:37:14;23.50;64.30
13642;DHT22;6894;52.196;9.904;2022-09-12T09:39:51;23.50;68.00
13642;DHT22;6894;52.196;9.904;2022-09-12T09:42:28;24.00;78.10
13642;DHT22;6894;52.196;9.904;2022-09-12T09:44:58;24.60;52.90
13642;DHT22;6894;52.196;9.904;2022-09-12T09:47:28;24.90;56.60
13642;DHT22;6894;52.196;9.904;2022-09-12T09:49:55;24.90;50.00
13642;DHT22;6894;52.196;9.904;2022-09-12T09:52:25;24.70;41.90
13642;DHT22;6894;52.196;9.904;2022-09-12T09:54:57;24.40;53.10
13642;DHT22;6894;52.196;9.904;2022-09-12T09:57:38;24.20;54.70
13642;DHT22;6894;52.196;9.904;2022-09-12T10:00:24;24.00;65.40
13642;DHT22;6894;52.196;9.904;2022-09-12T10:03:05;24.00;65.90
13642;DHT22;6894;52.196;9.904;2022-09-12T10:05:34;24.00;64.60
13642;DHT22;6894;52.196;9.904;2022-09-12T10:08:03;23.90;62.40
13642;DHT22;6894;52.196;9.904;2022-09-12T10:10:32;23.80;66.70
13642;DHT22;6894;52.196;9.904;2022-09-12T10:13:07;23.40;65.10
13642;DHT22;6894;52.196;9.904;2022-09-12T10:15:34;23.30;60.40
13642;DHT22;6894;52.196;9.904;2022-09-12T10:18:04;23.10;53.80
13642;DHT22;6894;52.196;9.904;2022-09-12T10:20:34;23.20;45.30
13642;DHT22;6894;52.196;9.904;2022-09-12T10:23:06;23.20;
13642;DHT22;6894;52.196;9.904;2022-09-12T10:25:44;23.20;53.10
13642;DHT22;6894;52.196;9.904;2022-09-12T10:28:20;23.30;41.40
13642;DHT22;6894;52.196;9.904;2022-09-12T10:30:52;23.20;38.60
13642;DHT22;6894;52.196;9.904;2022-09-12T10:33:22;23.10;33.60
13642;DHT22;6894;52.196;9.904;2022-09-12T10:35:52;23.10;41.30
13642;DHT22;6894;52.196;9.904;2022-09-12T10:38:23;23.20;43.70
13642;DHT22;6894;52.196;9.904;2022-09-12T10:40:55;23.30;55.70
13642;DHT22;6894;52.196;9.904;2022-09-12T10:43:26;23.20;48.80
13642;DHT22;6894;52.196;9.904;2022-09-12T10:45:56;23.20;40.30
13642;DHT22;6894;52.196;9.904;2022-09-12T10:48:27;23.20;33.80
13642;DHT22;6894;52.196;9.904;2022-09-12T10:50:56;23.20;52.20
13642;DHT22;6894;52.196;9.904;2022-09-12T10:53:24;23.30;41.30
13642;DHT22;6894;52.196;9.904;2022-09-12T10:56:07;23.20;46.70
13642;DHT22;6894;52.196;9.904;2022-09-12T10:58:58;23.20;41.60
13642;DHT22;6894;52.196;9.904;2022-09-12T11:01:35;23.30;34.60
13642;DHT22;6894;52.196;9.904;2022-09-12T11:04:27;23.30;42.00
13642;DHT22;6894;52.196;9.904;2022-09-12T11:07:12;23.10;55.30
13642;DHT22;6894;52.196;9.904;2022-09-12T11:09:43;23.00;64.50
13642;DHT22;6894;52.196;9.904;2022-09-12T11:12:21;23.10;57.90
13642;DHT22;6894;52.196;9.904;2022-09-12T11:15:02;23.10;62.10
13642;DHT22;6894;52.196;9.904;2022-09-12T11:17:42;23.30;47.10
13642;DHT22;6894;52.196;9.904;2022-09-12T11:20:28;23.30;48.40
13642;DHT22;6894;52.196;9.904;2022-09-12T11:23:25;23.50;42.70
13642;DHT22;6894;52.196;9.904;2022-09-12T11:26:02;23.90;31.80
13642;DHT22;6894;52.196;9.904;2022-09-12T11:28:40;23.70;20.40
13642;DHT22;6894;52.196;9.904;2022-09-12T11:34:16;23.80;23.60
13642;DHT22;6894;52.196;9.904;2022-09-12T11:37:01;23.90;23.00
13642;DHT22;6894;52.196;9.904;2022-09-12T11:39:37;23.80;22.10
13642;DHT22;6894;52.196;9.904;2022-09-12T11:42:05;23.70;17.40
13642;DHT22;6894;52.196;9.904;2022-09-12T11:44:38;23.80;17.50
13642;DHT22;6894;52.196;9.904;2022-09-12T11:47:09;23.80;14.40
13642;DHT22;6894;52.196;9.904;2022-09-12T11:49:38;23.80;19.10
13642;DHT22;6894;52.196;9.904;2022-09-12T11:52:13;23.80;13.70
13642;DHT22;6894;52.196;9.904;2022-09-12T11:54:43;23.50;13.90
13642;DHT22;6894;52.196;9.904;2022-09-12T11:57:15;23.40;23.80
13642;DHT22;6894;52.196;9.904;2022-09-12T11:59:46;23.70;17.30
13642;DHT22;6894;52.196;9.904;2022-09-12T12:02:21;24.10;15.60
13642;DHT22;6894;52.196;9.904;2022-09-12T12:05:00;24.00;10.70
13642;DHT22;6894;52.196;9.904;2022-09-12T12:07:37;24.00;11.70
13642;DHT22;6894;52.196;9.904;2022-09-12T12:10:06;24.00;10.20
13642;DHT22;6894;52.196;9.904;2022-09-12T12:12:47;24.00;13.70
13642;DHT22;6894;52.196;9.904;2022-09-12T12:15:15;24.10;11.40
13642;DHT22;6894;52.196;9.904;2022-09-12T12:17:43;24.30;13.30
13642;DHT22;6894;52.196;9.904;2022-09-12T12:20:15;24.20;9.10
13642;DHT22;6894;52.196;9.904;2022-09-12T12:22:51;24.00;9.50
13642;DHT22;6894;52.196;9.904;2022-09-12T12:25:24;24.00;9.30
13642;DHT22;6894;52.196;9.904;2022-09-12T12:27:54;23.90;10.50
13642;DHT22;6894;52.196;9.904;2022-09-12T12:30:59;23.70;12.90
13642;DHT22;6894;52.196;9.904;2022-09-12T12:36:40;23.50;10.00
13642;DHT22;6894;52.196;9.904;2022-09-12T12:49:04;24.00;6.20
13642;DHT22;6894;52.196;9.904;2022-09-12T12:51:48;24.20;4.20
13642;DHT22;6894;52.196;9.904;2022-09-12T12:57:46;24.20;3.60
13642;DHT22;6894;52.196;9.904;2022-09-12T13:00:27;24.00;3.50
13642;DHT22;6894;52.196;9.904;2022-09-12T13:02:56;24.00;3.90
13642;DHT22;6894;52.196;9.904;2022-09-12T13:05:26;24.10;3.30
13642;DHT22;6894;52.196;9.904;2022-09-12T13:07:56;24.30;1.00
13642;DHT22;6894;52.196;9.904;2022-09-12T13:10:26;24.40;2.90
13642;DHT22;6894;52.196;9.904;2022-09-12T13:12:55;24.70;1.00
13642;DHT22;6894;52.196;9.904;2022-09-12T13:15:45;24.50;1.00
13642;DHT22;6894;52.196;9.904;2022-09-12T13:18:16;24.70;1.00
13642;DHT22;6894;52.196;9.904;2022-09-12T13:20:48;24.60;1.00
13642;DHT22;6894;52.196;9.904;2022-09-12T13:23:22;24.40;1.00
13642;DHT22;6894;52.196;9.904;2022-09-12T13:25:52;24.60;1.00
13642;DHT22;6894;52.196;9.904;2022-09-12T13:28:20;24.50;1.00
13642;DHT22;6894;52.196;9.904;2022-09-12T13:30:54;24.70;1.00
13642;DHT22;6894;52.196;9.904;2022-09-12T13:33:29;24.80;1.00
13642;DHT22;6894;52.196;9.904;2022-09-12T13:36:32;24.80;1.00
13642;DHT22;6894;52.196;9.904;2022-09-12T13:39:19;24.60;1.00
13642;DHT22;6894;52.196;9.904;2022-09-12T13:44:52;25.00;1.00
13642;DHT22;6894;52.196;9.904;2022-09-12T13:47:25;25.00;1.00
13642;DHT22;6894;52.196;9.904;2022-09-12T13:49:53;25.00;1.00
13642;DHT22;6894;52.196;9.904;2022-09-12T13:52:25;25.10;1.00
13642;DHT22;6894;52.196;9.904;2022-09-12T13:54:55;25.20;1.00
13642;DHT22;6894;52.196;9.904;2022-09-12T13:57:29;25.20;1.00
13642;DHT22;6894;52.196;9.904;2022-09-12T13:59:57;25.20;1.00
13642;DHT22;6894;52.196;9.904;2022-09-12T14:02:26;25.00;1.00
13642;DHT22;6894;52.196;9.904;2022-09-12T14:04:53;25.10;1.00
13642;DHT22;6894;52.196;9.904;2022-09-12T14:07:45;25.50;1.00
13642;DHT22;6894;52.196;9.904;2022-09-12T14:10:21;26.20;1.00
13642;DHT22;6894;52.196;9.904;2022-09-12T14:12:49;26.30;1.00
13642;DHT22;6894;52.196;9.904;2022-09-12T14:15:18;26.10;1.00
13642;DHT22;6894;52.196;9.904;2022-09-12T14:17:50;25.90;1.00
13642;DHT22;6894;52.196;9.904;2022-09-12T14:20:18;25.70;1.00
13642;DHT22;6894;52.196;9.904;2022-09-12T14:22:49;25.30;1.00
13642;DHT22;6894;52.196;9.904;2022-09-12T14:25:18;25.30;1.00
13642;DHT22;6894;52.196;9.904;2022-09-12T14:27:49;25.50;1.00
13642;DHT22;6894;52.196;9.904;2022-09-12T14:30:22;25.60;1.00
13642;DHT22;6894;52.196;9.904;2022-09-12T14:33:17;25.80;1.00
13642;DHT22;6894;52.196;9.904;2022-09-12T14:35:45;25.80;1.00
13642;DHT22;6894;52.196;9.904;2022-09-12T14:38:21;25.50;1.00
13642;DHT22;6894;52.196;9.904;2022-09-12T14:40:52;24.90;1.00
13642;DHT22;6894;52.196;9.904;2022-09-12T14:43:26;24.60;1.00
13642;DHT22;6894;52.196;9.904;2022-09-12T14:45:56;24.50;1.00
13642;DHT22;6894;52.196;9.904;2022-09-12T14:48:24;24.40;1.00
13642;DHT22;6894;52.196;9.904;2022-09-12T14:50:52;24.60;1.00
13642;DHT22;6894;52.196;9.904;2022-09-12T14:53:24;24.60;1.00
13642;DHT22;6894;52.196;9.904;2022-09-12T14:55:56;24.90;1.00
13642;DHT22;6894;52.196;9.904;2022-09-12T14:58:25;25.00;1.00
13642;DHT22;6894;52.196;9.904;2022-09-12T15:00:54;25.20;1.00
13642;DHT22;6894;52.196;9.904;2022-09-12T15:03:28;25.30;1.00
13642;DHT22;6894;52.196;9.904;2022-09-12T15:05:55;25.30;1.00
13642;DHT22;6894;52.196;9.904;2022-09-12T15:08:23;25.20;1.00
13642;DHT22;6894;52.196;9.904;2022-09-12T15:10:50;25.30;1.00
13642;DHT22;6894;52.196;9.904;2022-09-12T15:13:20;25.20;1.00
13642;DHT22;6894;52.196;9.904;2022-09-12T15:15:49;25.10;1.00
13642;DHT22;6894;52.196;9.904;2022-09-12T15:18:17;24.90;1.00
13642;DHT22;6894;52.196;9.904;2022-09-12T15:20:45;24.70;1.00
13642;DHT22;6894;52.196;9.904;2022-09-12T15:23:36;24.80;1.00
13642;DHT22;6894;52.196;9.904;2022-09-12T15:26:06;24.90;1.00
13642;DHT22;6894;52.196;9.904;2022-09-12T15:28:33;25.00;1.00
13642;DHT22;6894;52.196;9.904;2022-09-12T15:31:04;24.90;1.00
13642;DHT22;6894;52.196;9.904;2022-09-12T15:33:31;24.90;1.00
13642;DHT22;6894;52.196;9.904;2022-09-12T15:35:58;24.80;1.00
13642;DHT22;6894;52.196;9.904;2022-09-12T15:38:25;24.90;1.00
13642;DHT22;6894;52.196;9.904;2022-09-12T15:40:53;24.80;1.00
13642;DHT22;6894;52.196;9.904;2022-09-12T15:43:22;24.50;1.00
13642;DHT22;6894;52.196;9.904;2022-09-12T15:45:50;24.30;1.00
13642;DHT22;6894;52.196;9.904;2022-09-12T15:48:17;24.10;1.00
13642;DHT22;6894;52.196;9.904;2022-09-12T15:50:45;23.90;1.00
13642;DHT22;6894;52.196;9.904;2022-09-12T15:53:14;23.80;1.00
13642;DHT22;6894;52.196;9.904;2022-09-12T15:55:41;23.80;1.00
13642;DHT22;6894;52.196;9.904;2022-09-12T15:58:09;23.80;1.00
13642;DHT22;6894;52.196;9.904;2022-09-12T16:00:36;23.90;1.00
13642;DHT22;6894;52.196;9.904;2022-09-12T16:03:03;23.90;1.00
13642;DHT22;6894;52.196;9.904;2022-09-12T16:05:30;23.90;1.00
13642;DHT22;6894;52.196;9.904;2022-09-12T16:07:57;23.90;1.00
13642;DHT22;6894;52.196;9.904;2022-09-12T16:10:26;23.80;1.00
13642;DHT22;6894;52.196;9.904;2022-09-12T16:12:54;23.70;1.00
13642;DHT22;6894;52.196;9.904;2022-09-12T16:15:23;23.70;1.10
13642;DHT22;6894;52.196;9.904;2022-09-12T16:17:51;23.60;4.30
13642;DHT22;6894;52.196;9.904;2022-09-12T16:20:18;23.50;2.70
13642;DHT22;6894;52.196;9.904;2022-09-12T16:22:45;23.50;5.50
13642;DHT22;6894;52.196;9.904;2022-09-12T16:25:12;23.40;6.10
13642;DHT22;6894;52.196;9.904;2022-09-12T16:27:39;23.30;6.50
13642;DHT22;6894;52.196;9.904;2022-09-12T16:30:07;23.30;7.00
13642;DHT22;6894;52.196;9.904;2022-09-12T16:32:35;23.30;11.40
13642;DHT22;6894;52.196;9.904;2022-09-12T16:35:03;23.20;9.70
13642;DHT22;6894;52.196;9.904;2022-09-12T16:37:30;23.10;8.30
13642;DHT22;6894;52.196;9.904;2022-09-12T16:39:58;23.10;10.50